createdAt,value
2024-03-05T00:00:26.551Z,20.83
2024-03-05T00:03:49.925Z,26.58
2024-03-05T00:07:17.096Z,22.17
2024-03-05T00:10:40.412Z,21.97
2024-03-05T00:14:03.025Z,21.25
2024-03-05T00:17:29.517Z,21.20
2024-03-05T00:20:52.590Z,21.55
2024-03-05T00:24:15.854Z,19.33
2024-03-05T00:27:39.112Z,22.20
2024-03-05T00:31:01.768Z,22.85
2024-03-05T00:34:25.840Z,19.92
2024-03-05T00:37:52.143Z,20.27
2024-03-05T00:41:14.652Z,18.98
2024-03-05T00:44:37.266Z,20.87
2024-03-05T00:47:59.837Z,23.08
2024-03-05T00:51:26.878Z,20.58
2024-03-05T00:54:49.449Z,22.17
2024-03-05T00:58:16.441Z,22.37
2024-03-05T01:01:39.016Z,23.07
2024-03-05T01:05:08.483Z,23.98
2024-03-05T01:08:34.110Z,22.17
2024-03-05T01:11:59.793Z,25.58
2024-03-05T01:15:22.345Z,29.47
2024-03-05T01:18:45.185Z,24.00
2024-03-05T01:22:09.930Z,25.42
2024-03-05T01:25:35.044Z,22.50
2024-03-05T01:28:57.909Z,22.92
2024-03-05T01:32:21.071Z,20.87
2024-03-05T01:35:50.023Z,22.00
2024-03-05T01:39:13.112Z,23.38
2024-03-05T01:42:36.893Z,24.92
2024-03-05T01:45:59.978Z,27.40
2024-03-05T01:49:22.603Z,21.87
2024-03-05T01:52:46.380Z,22.25
2024-03-05T01:56:09.454Z,22.73
2024-03-05T01:59:33.860Z,20.23
2024-03-05T02:02:57.022Z,21.98
2024-03-05T02:06:23.972Z,25.87
2024-03-05T02:09:47.156Z,22.33
2024-03-05T02:13:11.369Z,25.48
2024-03-05T02:16:35.363Z,24.67
2024-03-05T02:20:00.982Z,23.45
2024-03-05T02:23:25.020Z,18.73
2024-03-05T02:26:53.378Z,18.37
2024-03-05T02:30:17.008Z,25.10
2024-03-05T02:33:39.610Z,20.08
2024-03-05T02:37:02.274Z,20.67
2024-03-05T02:40:26.803Z,20.90
2024-03-05T02:43:49.177Z,20.33
2024-03-05T02:47:15.037Z,19.77
2024-03-05T02:50:37.528Z,23.38
2024-03-05T02:54:00.039Z,21.83
2024-03-05T02:57:27.552Z,20.53
2024-03-05T03:00:51.207Z,21.42
2024-03-05T03:04:13.898Z,22.92
2024-03-05T03:07:38.069Z,19.00
2024-03-05T03:11:00.715Z,18.33
2024-03-05T03:14:27.628Z,22.40
2024-03-05T03:17:50.535Z,23.98
2024-03-05T03:21:16.599Z,26.40
2024-03-05T03:24:39.223Z,23.15
2024-03-05T03:28:05.028Z,19.23
2024-03-05T03:31:29.157Z,21.97
2024-03-05T03:34:52.912Z,20.23
2024-03-05T03:38:15.473Z,20.45
2024-03-05T03:41:40.796Z,20.65
2024-03-05T03:45:03.279Z,22.85
2024-03-05T03:48:28.229Z,21.77
2024-03-05T03:51:50.418Z,19.75
2024-03-05T03:55:13.116Z,21.90
2024-03-05T03:58:36.346Z,21.87
2024-03-05T04:01:59.181Z,21.20
2024-03-05T04:05:23.708Z,22.58
2024-03-05T04:08:46.301Z,22.42
2024-03-05T04:12:09.534Z,20.02
2024-03-05T04:15:34.667Z,19.25
2024-03-05T04:18:57.586Z,22.57
2024-03-05T04:22:21.616Z,24.30
2024-03-05T04:25:44.982Z,23.23
2024-03-05T04:29:11.262Z,23.30
2024-03-05T04:32:35.771Z,20.92
2024-03-05T04:35:58.621Z,20.53
2024-03-05T04:39:23.406Z,22.13
2024-03-05T04:42:49.159Z,21.70
2024-03-05T04:46:12.426Z,21.77
2024-03-05T04:49:35.909Z,19.67
2024-03-05T04:52:59.084Z,19.60
2024-03-05T04:56:24.215Z,19.23
2024-03-05T04:59:49.304Z,22.33
2024-03-05T05:03:16.529Z,20.80
2024-03-05T05:06:39.626Z,23.60
2024-03-05T05:10:03.987Z,22.90
2024-03-05T05:13:28.325Z,24.80
2024-03-05T05:16:51.056Z,22.58
2024-03-05T05:20:17.899Z,21.58
2024-03-05T05:23:40.880Z,24.87
2024-03-05T05:27:03.542Z,20.97
2024-03-05T05:30:28.075Z,29.40
2024-03-05T05:33:51.565Z,20.48
2024-03-05T05:37:13.743Z,20.48
2024-03-05T05:40:36.517Z,24.83
2024-03-05T05:44:00.356Z,22.30
2024-03-05T05:47:27.900Z,21.08
2024-03-05T05:50:53.075Z,27.77
2024-03-05T05:54:19.905Z,27.67
2024-03-05T05:57:47.709Z,22.83
2024-03-05T06:01:12.017Z,26.23
2024-03-05T06:04:39.761Z,25.75
2024-03-05T06:08:02.735Z,24.67
2024-03-05T06:11:25.545Z,24.23
2024-03-05T06:14:47.784Z,29.27
2024-03-05T06:18:10.585Z,26.30
2024-03-05T06:21:34.461Z,23.05
2024-03-05T06:24:56.894Z,26.65
2024-03-05T06:28:20.869Z,34.47
2024-03-05T06:31:43.494Z,32.67
2024-03-05T06:35:12.318Z,33.47
2024-03-05T06:38:37.621Z,37.72
2024-03-05T06:42:00.682Z,29.02
2024-03-05T06:45:29.228Z,40.63
2024-03-05T06:48:53.036Z,28.98
2024-03-05T06:52:33.699Z,40.40
2024-03-05T06:56:15.209Z,55.40
2024-03-05T06:59:37.916Z,39.08
2024-03-05T07:03:04.519Z,32.00
2024-03-05T07:06:27.516Z,33.50
2024-03-05T07:09:54.858Z,46.92
2024-03-05T07:13:19.047Z,47.13
2024-03-05T07:16:41.756Z,46.92
2024-03-05T07:20:05.943Z,40.05
2024-03-05T07:23:30.360Z,30.50
2024-03-05T07:27:04.387Z,31.67
2024-03-05T07:30:32.796Z,32.88
2024-03-05T07:33:56.258Z,31.60
2024-03-05T07:37:22.149Z,29.73
2024-03-05T07:40:47.065Z,32.53
2024-03-05T07:44:09.789Z,28.33
2024-03-05T07:47:36.612Z,32.28
2024-03-05T07:50:59.278Z,33.15
2024-03-05T07:54:22.163Z,31.40
2024-03-05T07:57:45.007Z,29.37
2024-03-05T08:01:10.832Z,37.65
2024-03-05T08:04:36.566Z,31.90
2024-03-05T08:08:00.180Z,32.07
2024-03-05T08:11:24.745Z,34.15
2024-03-05T08:14:47.378Z,37.08
2024-03-05T08:18:13.614Z,32.60
2024-03-05T08:21:37.594Z,32.53
2024-03-05T08:25:06.746Z,37.57
2024-03-05T08:28:32.475Z,35.08
2024-03-05T08:31:55.375Z,40.40
2024-03-05T08:35:18.235Z,33.80
2024-03-05T08:38:42.304Z,34.90
2024-03-05T08:42:05.691Z,33.50
2024-03-05T08:45:31.508Z,38.50
2024-03-05T08:48:56.436Z,37.55
2024-03-05T08:52:21.665Z,35.65
2024-03-05T08:55:45.902Z,33.13
2024-03-05T08:59:11.485Z,31.13
2024-03-05T09:02:34.422Z,35.75
2024-03-05T09:05:57.983Z,31.80
2024-03-05T09:09:22.492Z,29.58
2024-03-05T09:12:46.651Z,34.42
2024-03-05T09:16:09.160Z,31.50
2024-03-05T09:19:34.588Z,33.70
2024-03-05T09:22:56.952Z,29.02
2024-03-05T09:26:20.019Z,29.95
2024-03-05T09:29:49.964Z,27.67
2024-03-05T09:33:12.738Z,31.40
2024-03-05T09:36:38.198Z,26.12
2024-03-05T09:40:01.218Z,25.20
2024-03-05T09:43:29.660Z,28.50
2024-03-05T09:46:54.000Z,30.30
2024-03-05T09:50:21.665Z,28.50
2024-03-05T09:53:44.374Z,25.40
2024-03-05T09:57:07.234Z,25.37
2024-03-05T10:00:31.973Z,29.87
2024-03-05T10:04:01.853Z,25.83
2024-03-05T10:07:27.967Z,27.10
2024-03-05T10:10:50.866Z,28.52
2024-03-05T10:14:16.378Z,24.92
2024-03-05T10:17:43.739Z,24.12
2024-03-05T10:21:23.515Z,29.33
2024-03-05T10:24:46.138Z,25.00
2024-03-05T10:28:10.592Z,24.25
2024-03-05T10:31:35.273Z,27.30
2024-03-05T10:34:57.793Z,28.70
2024-03-05T10:38:25.644Z,23.20
2024-03-05T10:41:51.888Z,20.20
2024-03-05T10:45:15.523Z,22.87
2024-03-05T10:48:42.844Z,24.58
2024-03-05T10:52:05.977Z,18.75
2024-03-05T10:55:29.991Z,20.13
2024-03-05T10:59:25.204Z,24.80
2024-03-05T11:02:51.046Z,19.37
2024-03-05T11:06:13.937Z,26.23
2024-03-05T11:09:38.069Z,23.00
2024-03-05T11:13:02.154Z,22.57
2024-03-05T11:16:30.999Z,21.95
2024-03-05T11:19:56.170Z,22.00
2024-03-05T11:23:19.189Z,19.95
2024-03-05T11:26:42.179Z,16.77
2024-03-05T11:33:55.228Z,23.05
2024-03-05T11:37:18.340Z,20.02
2024-03-05T11:40:41.800Z,23.62
2024-03-05T11:44:04.880Z,23.50
2024-03-05T11:47:39.782Z,25.83
2024-03-05T11:51:02.416Z,21.27
2024-03-05T11:54:25.661Z,21.92
2024-03-05T11:57:57.693Z,24.35
2024-03-05T12:01:22.892Z,23.87
2024-03-05T12:04:50.316Z,23.17
2024-03-05T12:08:13.177Z,26.10
2024-03-05T12:11:39.028Z,24.63
2024-03-05T12:15:07.115Z,26.23
2024-03-05T12:18:31.145Z,24.05
2024-03-05T12:21:55.310Z,25.07
2024-03-05T12:25:20.309Z,26.60
2024-03-05T12:28:42.982Z,21.45
2024-03-05T12:32:06.648Z,18.48
2024-03-05T12:35:32.258Z,23.75
2024-03-05T12:39:00.489Z,20.97
2024-03-05T12:42:24.851Z,18.85
2024-03-05T12:45:47.607Z,17.92
2024-03-05T12:49:10.797Z,20.88
2024-03-05T12:52:34.255Z,22.55
2024-03-05T12:56:03.704Z,21.33
2024-03-05T12:59:27.253Z,17.23
2024-03-05T13:02:49.953Z,19.42
2024-03-05T13:06:13.738Z,21.10
2024-03-05T13:09:39.803Z,20.10
2024-03-05T13:13:05.181Z,17.93
2024-03-05T13:16:27.978Z,20.52
2024-03-05T13:19:52.701Z,17.75
2024-03-05T13:23:15.057Z,18.30
2024-03-05T13:26:37.670Z,15.98
2024-03-05T13:30:10.061Z,14.90
2024-03-05T13:33:35.737Z,13.95
2024-03-05T13:36:58.271Z,17.65
2024-03-05T13:40:22.510Z,12.07
2024-03-05T13:43:45.962Z,16.75
2024-03-05T13:47:10.052Z,11.90
2024-03-05T13:50:36.500Z,16.00
2024-03-05T13:53:59.517Z,14.48
2024-03-05T13:57:27.464Z,11.82
2024-03-05T14:00:50.541Z,12.23
2024-03-05T14:04:15.500Z,12.90
2024-03-05T14:07:38.157Z,13.48
2024-03-05T14:11:04.795Z,14.18
2024-03-05T14:14:27.527Z,13.30
2024-03-05T14:17:50.410Z,13.65
2024-03-05T14:21:14.474Z,12.47
2024-03-05T14:24:38.870Z,14.43
2024-03-05T14:28:01.447Z,9.23
2024-03-05T14:31:26.442Z,9.98
2024-03-05T14:34:49.312Z,10.85
2024-03-05T14:38:17.930Z,12.30
2024-03-05T14:41:40.723Z,12.37
2024-03-05T14:45:03.492Z,10.75
2024-03-05T14:48:28.942Z,11.68
2024-03-05T14:51:52.084Z,15.57
2024-03-05T14:55:18.821Z,18.00
2024-03-05T14:58:42.327Z,19.02
2024-03-05T15:02:08.306Z,18.48
2024-03-05T15:05:33.833Z,16.20
2024-03-05T15:08:56.415Z,17.73
2024-03-05T15:12:23.304Z,17.20
2024-03-05T15:15:46.120Z,20.58
2024-03-05T15:19:08.819Z,23.60
2024-03-05T15:22:31.712Z,24.60
2024-03-05T15:25:57.391Z,23.10
2024-03-05T15:29:21.315Z,27.10
2024-03-05T15:32:52.009Z,27.30
2024-03-05T15:36:15.692Z,24.63
2024-03-05T15:39:38.629Z,24.50
2024-03-05T15:43:02.161Z,22.37
2024-03-05T15:46:26.864Z,24.23
2024-03-05T15:49:49.632Z,24.35
2024-03-05T15:53:12.987Z,25.17
2024-03-05T15:56:58.035Z,25.35
2024-03-05T16:00:21.721Z,26.33
2024-03-05T16:04:03.672Z,31.63
2024-03-05T16:07:34.752Z,31.87
2024-03-05T16:10:57.825Z,28.10
2024-03-05T16:14:20.571Z,26.95
2024-03-05T16:17:43.563Z,31.40
2024-03-05T16:21:09.276Z,29.90
2024-03-05T16:24:32.295Z,32.67
2024-03-05T16:27:55.994Z,34.90
2024-03-05T16:31:18.557Z,27.45
2024-03-05T16:34:42.999Z,28.30
2024-03-05T16:38:07.947Z,36.03
2024-03-05T16:41:30.961Z,29.48
2024-03-05T16:44:54.103Z,26.95
2024-03-05T16:48:16.764Z,26.20
2024-03-05T16:51:41.221Z,31.92
2024-03-05T16:55:11.106Z,27.37
2024-03-05T16:58:36.406Z,31.55
2024-03-05T17:02:02.868Z,32.47
2024-03-05T17:05:26.348Z,31.02
2024-03-05T17:08:50.722Z,31.90
2024-03-05T17:12:15.409Z,28.93
2024-03-05T17:15:39.588Z,32.10
2024-03-05T17:19:02.572Z,32.25
2024-03-05T17:22:27.533Z,27.67
2024-03-05T17:25:51.622Z,31.55
2024-03-05T17:29:19.834Z,31.60
2024-03-05T17:32:46.521Z,30.00
2024-03-05T17:36:11.133Z,28.27
2024-03-05T17:39:34.075Z,32.22
2024-03-05T17:42:57.068Z,29.45
2024-03-05T17:46:21.314Z,34.63
2024-03-05T17:49:44.140Z,34.85
2024-03-05T17:53:10.191Z,37.10
2024-03-05T17:56:32.964Z,30.30
2024-03-05T18:00:00.977Z,28.77
2024-03-05T18:03:25.462Z,33.77
2024-03-05T18:06:49.092Z,41.60
2024-03-05T18:10:12.615Z,45.92
2024-03-05T18:13:39.008Z,35.65
2024-03-05T18:17:02.308Z,36.25
2024-03-05T18:20:30.220Z,33.40
2024-03-05T18:23:56.053Z,39.85
2024-03-05T18:27:22.815Z,34.22
2024-03-05T18:30:49.544Z,34.40
2024-03-05T18:34:12.390Z,32.42
2024-03-05T18:37:36.621Z,32.03
2024-03-05T18:41:02.242Z,34.10
2024-03-05T18:44:25.594Z,37.28
2024-03-05T18:47:58.868Z,38.20
2024-03-05T18:51:26.324Z,33.55
2024-03-05T18:54:51.104Z,41.87
2024-03-05T18:58:13.685Z,36.88
2024-03-05T19:01:39.390Z,29.83
2024-03-05T19:05:04.852Z,32.60
2024-03-05T19:08:29.028Z,35.80
2024-03-05T19:11:53.029Z,52.30
2024-03-05T19:15:18.830Z,60.22
2024-03-05T19:18:41.592Z,75.57
2024-03-05T19:22:04.259Z,71.40
2024-03-05T19:25:29.804Z,83.18
2024-03-05T19:28:54.179Z,94.70
2024-03-05T19:32:18.348Z,54.75
2024-03-05T19:35:41.622Z,45.38
2024-03-05T19:39:05.740Z,54.35
2024-03-05T19:42:29.089Z,68.72
2024-03-05T19:45:53.163Z,72.30
2024-03-05T19:49:16.811Z,53.45
2024-03-05T19:52:39.541Z,46.03
2024-03-05T19:56:02.187Z,40.72
2024-03-05T19:59:24.882Z,39.90
2024-03-05T20:02:49.218Z,40.97
2024-03-05T20:06:12.454Z,38.13
2024-03-05T20:09:37.949Z,40.33
2024-03-05T20:13:00.594Z,43.25
2024-03-05T20:16:23.056Z,39.00
2024-03-05T20:19:47.264Z,43.70
2024-03-05T20:23:10.258Z,43.15
2024-03-05T20:26:34.104Z,41.95
2024-03-05T20:29:56.955Z,35.45
2024-03-05T20:33:19.753Z,37.38
2024-03-05T20:36:44.878Z,44.13
2024-03-05T20:40:13.008Z,41.10
2024-03-05T20:43:35.607Z,48.80
2024-03-05T20:47:06.681Z,50.45
2024-03-05T20:50:30.515Z,43.85
2024-03-05T20:53:54.568Z,46.50
2024-03-05T20:57:17.185Z,41.80
2024-03-05T21:00:39.674Z,46.70
2024-03-05T21:04:06.602Z,40.28
2024-03-05T21:07:30.769Z,44.47
2024-03-05T21:10:54.701Z,43.07
2024-03-05T21:14:17.907Z,44.25
2024-03-05T21:17:41.078Z,39.40
2024-03-05T21:21:04.661Z,42.38
2024-03-05T21:24:27.592Z,43.85
2024-03-05T21:27:51.818Z,45.50
2024-03-05T21:31:14.157Z,44.65
2024-03-05T21:34:40.149Z,41.67
2024-03-05T21:38:02.878Z,43.63
2024-03-05T21:41:26.929Z,44.13
2024-03-05T21:44:50.863Z,46.28
2024-03-05T21:48:15.645Z,43.80
2024-03-05T21:51:38.308Z,41.40
2024-03-05T21:55:03.546Z,41.90
2024-03-05T21:58:26.216Z,44.87
2024-03-05T22:01:51.716Z,46.00
2024-03-05T22:05:16.512Z,42.13
2024-03-05T22:08:39.167Z,43.08
2024-03-05T22:12:05.108Z,44.60
2024-03-05T22:15:30.659Z,42.97
2024-03-05T22:18:54.981Z,42.08
2024-03-05T22:22:17.722Z,40.95
2024-03-05T22:25:43.857Z,44.58
2024-03-05T22:29:08.949Z,40.05
2024-03-05T22:32:31.616Z,43.33
2024-03-05T22:36:06.221Z,38.95
2024-03-05T22:39:31.883Z,40.15
2024-03-05T22:42:57.355Z,45.80
2024-03-05T22:46:20.816Z,43.07
2024-03-05T22:49:45.838Z,41.25
2024-03-05T22:53:11.014Z,45.42
2024-03-05T22:56:33.670Z,45.70
2024-03-05T22:59:56.340Z,43.65
2024-03-05T23:06:59.164Z,46.10
2024-03-05T23:10:25.468Z,45.10
2024-03-05T23:13:48.107Z,46.10
2024-03-05T23:17:12.257Z,45.30
2024-03-05T23:20:35.074Z,51.37
2024-03-05T23:23:57.392Z,45.28
2024-03-05T23:27:22.688Z,42.62
2024-03-05T23:30:45.217Z,46.75
2024-03-05T23:34:08.648Z,42.25
2024-03-05T23:37:31.357Z,44.90
2024-03-05T23:41:03.439Z,44.85
2024-03-05T23:44:30.648Z,45.58
2024-03-05T23:47:54.775Z,36.00
2024-03-05T23:51:20.418Z,45.33
2024-03-05T23:54:43.478Z,40.70
2024-03-05T23:58:06.554Z,43.05
